Time;durP1;ratioP1;P1;durP2;ratioP2;P2;SDS_P1;SDS_P2;PMS_P1;PMS_P2;Temp;Humidity;BMP_temperature;BMP_pressure;BME280_temperature;BME280_humidity;BME280_pressure;Samples;Min_cycle;Max_cycle;Signal;HPM_P1;HPM_P2
2022/03/06 00:01:58;;;;;;;0.00;0.00;;;7.50;99.90;;;;;;4989642;28;20485;-71
2022/03/06 00:04:24;;;;;;;2.03;0.57;;;7.50;99.90;;;;;;4977965;28;20034;-71
2022/03/06 00:06:50;;;;;;;0.00;0.00;;;7.50;99.90;;;;;;4978363;28;20563;-72
2022/03/06 00:09:15;;;;;;;2.78;1.13;;;7.60;99.90;;;;;;4977848;28;20031;-72
2022/03/06 00:11:41;;;;;;;0.20;0.20;;;7.60;99.90;;;;;;4977862;28;20030;-73
2022/03/06 00:14:07;;;;;;;0.50;0.50;;;7.60;99.90;;;;;;4977980;28;20062;-71
2022/03/06 00:16:32;;;;;;;0.00;0.00;;;7.60;99.90;;;;;;4977822;28;20038;-71
2022/03/06 00:18:58;;;;;;;0.10;0.10;;;7.60;99.90;;;;;;4977916;28;20102;-71
2022/03/06 00:21:24;;;;;;;0.38;0.38;;;7.70;99.90;;;;;;4977252;28;20482;-71
2022/03/06 00:23:49;;;;;;;0.35;0.30;;;7.70;99.90;;;;;;4977343;28;20031;-71
2022/03/06 00:26:15;;;;;;;0.30;0.30;;;7.70;99.90;;;;;;4978109;28;20101;-72
2022/03/06 00:28:40;;;;;;;0.90;0.90;;;7.70;99.90;;;;;;4978100;28;20118;-71
2022/03/06 00:31:06;;;;;;;0.30;0.30;;;7.70;99.90;;;;;;4977977;28;20110;-71
2022/03/06 00:33:33;;;;;;;0.10;0.10;;;7.60;99.90;;;;;;4977585;28;20470;-72
2022/03/06 00:35:58;;;;;;;0.47;0.47;;;7.60;99.90;;;;;;4977054;28;20038;-71
2022/03/06 00:38:24;;;;;;;0.17;0.17;;;7.60;99.90;;;;;;4977253;28;20035;-71
2022/03/06 00:40:50;;;;;;;0.00;0.00;;;7.60;99.90;;;;;;4977625;28;20059;-71
2022/03/06 00:43:15;;;;;;;0.05;0.03;;;7.60;99.90;;;;;;4977723;28;20027;-72
2022/03/06 00:45:42;;;;;;;1.17;0.75;;;7.60;99.90;;;;;;4977187;28;20050;-72
2022/03/06 00:48:07;;;;;;;0.15;0.15;;;7.60;99.90;;;;;;4977412;28;20057;-72
2022/03/06 00:50:37;;;;;;;1.38;0.85;;;7.60;99.90;;;;;;4991078;28;20069;-72
2022/03/06 00:53:03;;;;;;;0.15;0.15;;;7.60;99.90;;;;;;4996689;28;20180;-71
2022/03/06 00:55:30;;;;;;;0.47;0.47;;;7.60;99.90;;;;;;4996965;28;20386;-71
2022/03/06 00:57:56;;;;;;;0.00;0.00;;;7.60;99.90;;;;;;4997064;28;20731;-72
2022/03/06 01:00:22;;;;;;;0.10;0.10;;;7.60;99.90;;;;;;4996706;28;20101;-71
2022/03/06 01:02:48;;;;;;;0.00;0.00;;;7.60;99.90;;;;;;4996279;28;20022;-72
2022/03/06 01:05:14;;;;;;;0.47;0.43;;;7.60;99.90;;;;;;4996199;28;20481;-72
2022/03/06 01:07:40;;;;;;;0.30;0.30;;;7.60;99.90;;;;;;4996892;28;20014;-72
2022/03/06 01:10:06;;;;;;;0.63;0.63;;;7.60;99.90;;;;;;4995816;28;20022;-72
2022/03/06 01:12:32;;;;;;;0.30;0.30;;;7.50;99.90;;;;;;4994576;28;20494;-71
2022/03/06 01:14:58;;;;;;;0.30;0.30;;;7.50;99.90;;;;;;4996180;28;20037;-72
2022/03/06 01:17:24;;;;;;;1.13;0.52;;;7.50;99.90;;;;;;4995937;28;20034;-72
2022/03/06 01:19:50;;;;;;;0.47;0.47;;;7.50;99.90;;;;;;4996090;28;20030;-71
2022/03/06 01:22:16;;;;;;;0.20;0.20;;;7.60;99.90;;;;;;4994145;28;20040;-72
2022/03/06 01:24:42;;;;;;;1.33;0.43;;;7.60;99.90;;;;;;4996013;28;20026;-71
2022/03/06 01:27:08;;;;;;;0.20;0.20;;;7.60;99.90;;;;;;4995811;28;20088;-71
2022/03/06 01:29:34;;;;;;;0.00;0.00;;;7.50;99.90;;;;;;4994748;28;20072;-71
2022/03/06 01:32:02;;;;;;;0.17;0.17;;;7.50;99.90;;;;;;4996404;28;20029;-72
2022/03/06 01:34:28;;;;;;;0.00;0.00;;;7.60;99.90;;;;;;4995977;28;20030;-71
2022/03/06 01:36:54;;;;;;;0.22;0.22;;;7.60;99.90;;;;;;4995809;28;20531;-71
2022/03/06 01:39:19;;;;;;;0.45;0.45;;;7.60;99.90;;;;;;4995566;28;20022;-71
2022/03/06 01:41:45;;;;;;;0.25;0.25;;;7.60;99.90;;;;;;4976500;28;20031;-72
2022/03/06 01:44:14;;;;;;;0.10;0.10;;;7.60;99.90;;;;;;4976445;28;20413;-72
2022/03/06 01:46:40;;;;;;;0.10;0.10;;;7.60;99.90;;;;;;4975983;28;20027;-71
2022/03/06 01:49:05;;;;;;;0.98;0.85;;;7.60;99.90;;;;;;4978007;28;20026;-71
2022/03/06 01:51:31;;;;;;;0.13;0.13;;;7.60;99.90;;;;;;4995918;28;20023;-71
2022/03/06 01:53:57;;;;;;;0.90;0.90;;;7.60;99.90;;;;;;4995810;28;20031;-72
2022/03/06 01:56:22;;;;;;;0.45;0.45;;;7.60;99.90;;;;;;4995972;28;20026;-71
2022/03/06 01:58:48;;;;;;;0.35;0.35;;;7.60;99.90;;;;;;4994881;28;20081;-71
2022/03/06 02:01:14;;;;;;;0.77;0.52;;;7.60;99.90;;;;;;4995065;28;20077;-71
2022/03/06 02:03:40;;;;;;;2.13;1.35;;;7.60;99.90;;;;;;4995070;28;20042;-72
2022/03/06 02:06:07;;;;;;;0.50;0.50;;;7.60;99.90;;;;;;4995379;28;20026;-71
2022/03/06 02:08:34;;;;;;;0.30;0.30;;;7.50;99.90;;;;;;4995216;28;20026;-71
2022/03/06 02:11:00;;;;;;;0.30;0.30;;;7.50;99.90;;;;;;4995422;28;20082;-72
2022/03/06 02:13:26;;;;;;;0.03;0.03;;;7.50;99.90;;;;;;4995228;28;20029;-71
2022/03/06 02:15:52;;;;;;;0.20;0.20;;;7.50;99.90;;;;;;4994908;28;20031;-72
2022/03/06 02:18:19;;;;;;;0.55;0.55;;;7.40;99.90;;;;;;4994860;28;20046;-72
2022/03/06 02:20:47;;;;;;;0.43;0.43;;;7.40;99.90;;;;;;4994713;28;20026;-72
2022/03/06 02:23:13;;;;;;;0.80;0.80;;;7.30;99.90;;;;;;4993833;28;20108;-72
2022/03/06 02:25:38;;;;;;;0.30;0.30;;;7.30;99.90;;;;;;4995062;28;20058;-72
2022/03/06 02:28:07;;;;;;;0.60;0.60;;;7.20;99.90;;;;;;4994834;28;20026;-72
2022/03/06 02:30:41;;;;;;;0.93;0.93;;;7.20;99.90;;;;;;4995098;28;20037;-72
2022/03/06 02:33:10;;;;;;;0.10;0.10;;;7.20;99.90;;;;;;4994205;28;20097;-72
2022/03/06 02:35:36;;;;;;;0.38;0.38;;;7.20;99.90;;;;;;4994867;28;20164;-73
2022/03/06 02:38:03;;;;;;;0.00;0.00;;;7.20;99.90;;;;;;4994793;28;20094;-72
2022/03/06 02:40:29;;;;;;;0.08;0.08;;;7.10;99.90;;;;;;4985287;28;20046;-72
2022/03/06 02:42:55;;;;;;;0.32;0.32;;;7.20;99.90;;;;;;4975497;28;20482;-72
2022/03/06 02:45:24;;;;;;;0.40;0.40;;;7.10;99.90;;;;;;4975026;28;20057;-72
2022/03/06 02:47:51;;;;;;;0.00;0.00;;;7.10;99.90;;;;;;4974954;28;20023;-72
2022/03/06 02:50:24;;;;;;;0.20;0.20;;;7.10;99.90;;;;;;4986430;28;20022;-71
2022/03/06 02:52:52;;;;;;;0.30;0.30;;;7.10;99.90;;;;;;4994732;28;20030;-72
2022/03/06 02:55:18;;;;;;;0.20;0.20;;;7.20;99.90;;;;;;4994236;28;20058;-72
2022/03/06 02:57:45;;;;;;;0.20;0.20;;;7.10;99.90;;;;;;4993838;28;20026;-72
2022/03/06 03:00:13;;;;;;;0.00;0.00;;;7.20;99.90;;;;;;4994369;28;20030;-72
2022/03/06 03:02:40;;;;;;;0.45;0.45;;;7.20;99.90;;;;;;4994115;28;20026;-72
2022/03/06 03:05:08;;;;;;;0.35;0.35;;;7.10;99.90;;;;;;4994126;28;20026;-72
2022/03/06 03:07:37;;;;;;;0.25;0.20;;;7.20;99.90;;;;;;4994911;28;20019;-71
2022/03/06 03:10:03;;;;;;;0.63;0.50;;;7.10;99.90;;;;;;4993804;28;20378;-71
2022/03/06 03:12:28;;;;;;;1.10;0.65;;;7.20;99.90;;;;;;4994583;28;20034;-71
2022/03/06 03:14:57;;;;;;;0.55;0.55;;;7.20;99.90;;;;;;4993991;28;20083;-72
2022/03/06 03:17:22;;;;;;;0.45;0.45;;;7.20;99.90;;;;;;4993745;28;20042;-72
2022/03/06 03:19:48;;;;;;;0.20;0.20;;;7.10;99.90;;;;;;4994053;28;20030;-72
2022/03/06 03:22:17;;;;;;;2.72;1.17;;;7.20;99.90;;;;;;4993359;28;20382;-72
2022/03/06 03:24:42;;;;;;;1.85;0.20;;;7.20;99.90;;;;;;4993947;28;20101;-72
2022/03/06 03:27:08;;;;;;;0.00;0.00;;;7.20;99.90;;;;;;4993930;28;20108;-72
2022/03/06 03:29:34;;;;;;;0.52;0.52;;;7.20;99.90;;;;;;4993982;28;20500;-72
2022/03/06 03:31:59;;;;;;;0.25;0.25;;;7.20;99.90;;;;;;4993463;28;20029;-72
2022/03/06 03:34:25;;;;;;;1.75;0.68;;;7.20;99.90;;;;;;4993386;28;20064;-72
2022/03/06 03:36:50;;;;;;;0.15;0.15;;;7.20;99.90;;;;;;4994185;28;20026;-72
2022/03/06 03:39:17;;;;;;;0.17;0.05;;;7.20;99.90;;;;;;4993936;28;20034;-72
2022/03/06 03:41:42;;;;;;;0.10;0.10;;;7.20;99.90;;;;;;4975083;28;20102;-72
2022/03/06 03:44:08;;;;;;;0.35;0.35;;;7.20;99.90;;;;;;4974082;28;20476;-72
2022/03/06 03:46:33;;;;;;;0.10;0.10;;;7.20;99.90;;;;;;4974434;28;20521;-72
2022/03/06 03:48:59;;;;;;;1.30;0.60;;;7.10;99.90;;;;;;4975315;28;20402;-72
2022/03/06 03:51:25;;;;;;;0.32;0.32;;;7.10;99.90;;;;;;4993286;28;20058;-72
2022/03/06 03:53:50;;;;;;;0.15;0.15;;;7.10;99.90;;;;;;4993529;28;20030;-72
2022/03/06 03:56:16;;;;;;;0.60;0.60;;;7.20;99.90;;;;;;4993577;28;20073;-72
2022/03/06 03:58:42;;;;;;;0.35;0.35;;;7.20;99.90;;;;;;4993500;28;20081;-72
2022/03/06 04:01:07;;;;;;;1.70;0.15;;;7.20;99.90;;;;;;4993569;28;20037;-72
2022/03/06 04:03:33;;;;;;;0.05;0.05;;;7.20;99.90;;;;;;4993498;28;20038;-72
2022/03/06 04:05:59;;;;;;;0.22;0.22;;;7.20;99.90;;;;;;4992980;28;20023;-72
2022/03/06 04:08:24;;;;;;;1.05;1.00;;;7.20;99.90;;;;;;4993140;28;20509;-72
2022/03/06 04:10:50;;;;;;;0.45;0.43;;;7.20;99.90;;;;;;4993418;28;20022;-72
2022/03/06 04:13:16;;;;;;;0.95;0.68;;;7.20;99.90;;;;;;4992670;28;20031;-72
2022/03/06 04:15:41;;;;;;;0.52;0.52;;;7.20;99.90;;;;;;4993471;28;20030;-72
2022/03/06 04:18:07;;;;;;;0.40;0.40;;;7.20;99.90;;;;;;4993313;28;20085;-72
2022/03/06 04:20:33;;;;;;;0.45;0.45;;;7.20;99.90;;;;;;4993363;28;20113;-72
2022/03/06 04:22:58;;;;;;;0.47;0.47;;;7.10;99.90;;;;;;4992761;28;20105;-72
2022/03/06 04:25:25;;;;;;;0.25;0.25;;;7.20;99.90;;;;;;4993385;28;20023;-72
2022/03/06 04:27:50;;;;;;;3.00;0.80;;;7.10;99.90;;;;;;4993338;28;20026;-73
2022/03/06 04:30:16;;;;;;;2.72;1.13;;;7.20;99.90;;;;;;4993032;28;20077;-72
2022/03/06 04:32:42;;;;;;;0.25;0.25;;;7.20;99.90;;;;;;4993328;28;20030;-72
2022/03/06 04:35:08;;;;;;;0.45;0.45;;;7.20;99.90;;;;;;4993228;28;20037;-72
2022/03/06 04:37:34;;;;;;;0.47;0.47;;;7.20;99.90;;;;;;4993573;28;20080;-72
2022/03/06 04:40:00;;;;;;;0.30;0.30;;;7.20;99.90;;;;;;4987931;28;20027;-72
2022/03/06 04:42:25;;;;;;;0.00;0.00;;;7.20;99.90;;;;;;4973172;28;20482;-72
2022/03/06 04:44:51;;;;;;;0.55;0.55;;;7.20;99.90;;;;;;4974309;28;20047;-72
2022/03/06 04:47:17;;;;;;;0.55;0.55;;;7.20;99.90;;;;;;4977459;28;20034;-72
2022/03/06 04:49:42;;;;;;;0.25;0.25;;;7.20;99.90;;;;;;4995485;28;20030;-72
2022/03/06 04:52:08;;;;;;;0.20;0.20;;;7.10;99.90;;;;;;4996664;28;20026;-72
2022/03/06 04:54:34;;;;;;;0.47;0.47;;;7.20;99.90;;;;;;4996800;28;20093;-72
2022/03/06 04:57:03;;;;;;;0.30;0.30;;;7.20;99.90;;;;;;4996527;28;20034;-72
2022/03/06 04:59:29;;;;;;;0.52;0.52;;;7.20;99.90;;;;;;4996389;28;20034;-72
2022/03/06 05:01:55;;;;;;;0.10;0.10;;;7.20;99.90;;;;;;4996557;28;20037;-72
2022/03/06 05:04:20;;;;;;;0.47;0.47;;;7.10;99.90;;;;;;4996500;28;20064;-72
2022/03/06 05:06:46;;;;;;;2.03;1.23;;;7.10;99.90;;;;;;4996581;28;20039;-72
2022/03/06 05:09:12;;;;;;;0.35;0.35;;;7.20;99.90;;;;;;4996296;28;20033;-72
2022/03/06 05:11:37;;;;;;;0.47;0.47;;;7.10;99.90;;;;;;4996322;28;20566;-72
2022/03/06 05:14:03;;;;;;;0.80;0.80;;;7.10;99.90;;;;;;4996516;28;20393;-72
2022/03/06 05:16:29;;;;;;;0.55;0.55;;;7.10;99.90;;;;;;4994174;28;20037;-72
2022/03/06 05:18:56;;;;;;;0.45;0.45;;;7.10;99.90;;;;;;4996545;28;20031;-72
2022/03/06 05:21:21;;;;;;;0.10;0.10;;;7.10;99.90;;;;;;4996977;28;20073;-72
2022/03/06 05:23:47;;;;;;;0.68;0.68;;;7.10;99.90;;;;;;4995272;28;20485;-72
2022/03/06 05:26:13;;;;;;;1.45;1.35;;;7.10;99.90;;;;;;4996320;28;20029;-72
2022/03/06 05:28:41;;;;;;;3.72;0.63;;;7.10;99.90;;;;;;4996405;28;20070;-72
2022/03/06 05:31:07;;;;;;;1.17;0.65;;;7.10;99.90;;;;;;4996123;28;20019;-72
2022/03/06 05:33:33;;;;;;;0.47;0.47;;;7.20;99.90;;;;;;4996109;28;20080;-72
2022/03/06 05:35:58;;;;;;;1.80;1.67;;;7.20;99.90;;;;;;4995837;28;20490;-72
2022/03/06 05:38:24;;;;;;;0.57;0.57;;;7.10;99.90;;;;;;4995768;28;20061;-72
2022/03/06 05:40:49;;;;;;;0.30;0.30;;;7.10;99.90;;;;;;4994506;28;20031;-73
2022/03/06 05:43:15;;;;;;;0.80;0.80;;;7.10;99.90;;;;;;4995999;28;20038;-72
2022/03/06 05:45:41;;;;;;;0.60;0.60;;;7.10;99.90;;;;;;4995601;28;20038;-72
2022/03/06 05:48:06;;;;;;;0.30;0.30;;;7.10;99.90;;;;;;4995834;28;20097;-72
2022/03/06 05:50:32;;;;;;;0.32;0.32;;;7.10;99.90;;;;;;4995452;28;20022;-72
2022/03/06 05:52:58;;;;;;;0.30;0.30;;;7.00;99.90;;;;;;4995035;28;20112;-72
2022/03/06 05:55:23;;;;;;;1.88;1.58;;;7.00;99.90;;;;;;4995560;28;20029;-72
2022/03/06 05:57:49;;;;;;;2.10;1.73;;;7.10;99.90;;;;;;4994995;28;20041;-72
2022/03/06 06:00:17;;;;;;;0.63;0.63;;;7.10;99.90;;;;;;4995524;28;20030;-72
2022/03/06 06:02:43;;;;;;;1.20;1.20;;;7.00;99.90;;;;;;4995501;28;20041;-72
2022/03/06 06:05:10;;;;;;;0.45;0.45;;;7.00;99.90;;;;;;4995338;28;20045;-72
2022/03/06 06:07:36;;;;;;;7.65;1.02;;;7.00;99.90;;;;;;4995809;28;20076;-72
2022/03/06 06:10:04;;;;;;;0.60;0.60;;;7.00;99.90;;;;;;4995204;28;20045;-72
2022/03/06 06:12:29;;;;;;;0.30;0.30;;;6.90;99.90;;;;;;4995184;28;20023;-72
2022/03/06 06:14:55;;;;;;;2.05;1.55;;;6.90;99.90;;;;;;4995370;28;20029;-72
2022/03/06 06:17:21;;;;;;;1.88;1.35;;;6.90;99.90;;;;;;4994728;28;20105;-73
2022/03/06 06:19:47;;;;;;;2.35;2.20;;;6.90;99.90;;;;;;4995169;28;20029;-72
2022/03/06 06:22:12;;;;;;;1.15;1.15;;;7.00;99.90;;;;;;4995047;28;20030;-72
2022/03/06 06:24:38;;;;;;;0.30;0.30;;;6.90;99.90;;;;;;4994186;28;20036;-73
2022/03/06 06:27:04;;;;;;;0.60;0.60;;;6.90;99.90;;;;;;4994286;28;20031;-72
2022/03/06 06:29:30;;;;;;;3.17;2.08;;;7.00;99.90;;;;;;4995069;28;20050;-72
2022/03/06 06:31:56;;;;;;;0.68;0.68;;;6.90;99.90;;;;;;4995058;28;20061;-72
2022/03/06 06:34:22;;;;;;;0.73;0.73;;;7.00;99.90;;;;;;4994966;28;20490;-72
2022/03/06 06:36:48;;;;;;;1.08;1.08;;;7.00;99.90;;;;;;4994804;28;20026;-72
2022/03/06 06:39:14;;;;;;;3.30;1.25;;;7.00;99.90;;;;;;4994383;28;20030;-72
2022/03/06 06:41:42;;;;;;;2.40;2.08;;;7.00;99.90;;;;;;4994888;28;20187;-72
2022/03/06 06:44:09;;;;;;;1.30;0.50;;;7.00;99.90;;;;;;4994632;28;20043;-73
2022/03/06 06:46:35;;;;;;;6.38;1.17;;;7.00;99.90;;;;;;4994864;28;20033;-72
2022/03/06 06:49:03;;;;;;;2.55;1.83;;;7.00;99.90;;;;;;4994397;28;20389;-72
2022/03/06 06:51:29;;;;;;;2.63;1.40;;;7.00;99.90;;;;;;4994311;28;20061;-72
2022/03/06 06:53:55;;;;;;;0.65;0.57;;;7.00;99.90;;;;;;4994226;28;20045;-72
2022/03/06 06:56:21;;;;;;;1.85;1.75;;;7.00;99.90;;;;;;4995091;28;20030;-73
2022/03/06 06:58:47;;;;;;;0.60;0.60;;;7.00;99.90;;;;;;4994933;28;20023;-73
2022/03/06 07:01:12;;;;;;;1.30;1.25;;;7.00;99.90;;;;;;4993582;28;20038;-72
2022/03/06 07:03:38;;;;;;;1.13;1.13;;;7.00;99.90;;;;;;4994195;28;20030;-72
2022/03/06 07:06:04;;;;;;;3.13;1.38;;;7.00;99.90;;;;;;4994308;28;20485;-72
2022/03/06 07:08:29;;;;;;;2.35;2.17;;;7.00;99.90;;;;;;4992988;28;20490;-72
2022/03/06 07:10:55;;;;;;;1.35;1.27;;;7.10;99.90;;;;;;4994293;28;20022;-72
2022/03/06 07:13:21;;;;;;;2.40;2.25;;;7.10;99.90;;;;;;4993346;28;20038;-72
2022/03/06 07:15:46;;;;;;;0.32;0.32;;;7.10;99.90;;;;;;4994223;28;20101;-73
2022/03/06 07:18:12;;;;;;;1.55;1.27;;;7.10;99.90;;;;;;4993789;28;20497;-72
2022/03/06 07:20:38;;;;;;;1.50;1.40;;;7.10;99.90;;;;;;4994155;28;20374;-72
2022/03/06 07:23:03;;;;;;;1.65;1.35;;;7.10;99.90;;;;;;4993894;28;20049;-72
2022/03/06 07:25:29;;;;;;;1.33;1.27;;;7.10;99.90;;;;;;4993184;28;20031;-72
2022/03/06 07:27:55;;;;;;;3.30;1.02;;;7.10;99.90;;;;;;4993788;28;20054;-72
2022/03/06 07:30:21;;;;;;;1.77;1.52;;;7.20;99.90;;;;;;4993971;28;20084;-72
2022/03/06 07:32:52;;;;;;;16.02;3.80;;;7.20;99.90;;;;;;4993924;28;20026;-72
2022/03/06 07:35:19;;;;;;;3.50;2.17;;;7.20;99.90;;;;;;4993956;28;20600;-73
2022/03/06 07:37:45;;;;;;;2.90;1.80;;;7.30;99.90;;;;;;4993090;28;20058;-72
2022/03/06 07:40:13;;;;;;;2.25;1.70;;;7.30;99.90;;;;;;4993504;28;20014;-72
2022/03/06 07:42:38;;;;;;;3.22;1.83;;;7.30;99.90;;;;;;4978318;28;20041;-73
2022/03/06 07:45:05;;;;;;;0.98;0.98;;;7.30;99.90;;;;;;4974082;28;20055;-72
2022/03/06 07:47:31;;;;;;;11.55;1.83;;;7.40;99.90;;;;;;4974256;28;20027;-73
2022/03/06 07:49:56;;;;;;;5.97;3.40;;;7.40;99.90;;;;;;4982904;28;20029;-72
2022/03/06 07:52:22;;;;;;;0.75;0.70;;;7.50;99.90;;;;;;4993489;28;20406;-72
2022/03/06 07:54:48;;;;;;;4.75;2.45;;;7.60;99.90;;;;;;4993490;28;20484;-72
2022/03/06 07:57:14;;;;;;;0.88;0.88;;;7.60;99.90;;;;;;4993892;28;20030;-73
2022/03/06 07:59:39;;;;;;;3.35;2.28;;;7.70;99.90;;;;;;4992455;28;20022;-73
2022/03/06 08:02:05;;;;;;;0.85;0.85;;;7.70;99.90;;;;;;4993607;28;20030;-72
2022/03/06 08:04:31;;;;;;;2.50;1.17;;;7.70;99.90;;;;;;4993453;28;20065;-73
2022/03/06 08:06:56;;;;;;;2.88;2.17;;;7.80;99.90;;;;;;4993661;28;20027;-72
2022/03/06 08:09:24;;;;;;;1.38;1.38;;;7.90;99.90;;;;;;4993039;28;20537;-73
2022/03/06 08:11:53;;;;;;;1.95;0.93;;;8.00;99.90;;;;;;4992611;28;20397;-72
2022/03/06 08:14:19;;;;;;;2.00;1.90;;;8.10;99.90;;;;;;4993311;28;20485;-73
2022/03/06 08:16:44;;;;;;;2.60;1.38;;;8.20;99.90;;;;;;4993097;28;20057;-72
2022/03/06 08:19:10;;;;;;;1.50;1.45;;;8.20;99.90;;;;;;4993329;28;20018;-72
2022/03/06 08:21:35;;;;;;;1.33;1.25;;;8.30;99.90;;;;;;4996888;28;20097;-72
2022/03/06 08:24:01;;;;;;;4.90;4.00;;;8.30;99.90;;;;;;4996838;28;20030;-72
2022/03/06 08:26:27;;;;;;;9.50;2.97;;;8.40;99.90;;;;;;4996906;28;20034;-73
2022/03/06 08:28:53;;;;;;;2.03;1.92;;;8.40;99.90;;;;;;4996879;28;20609;-72
2022/03/06 08:31:19;;;;;;;1.70;1.60;;;8.50;99.90;;;;;;4997469;28;20042;-71
2022/03/06 08:33:46;;;;;;;4.13;2.55;;;8.50;99.90;;;;;;4996994;28;20033;-72
2022/03/06 08:36:11;;;;;;;1.65;1.55;;;8.50;99.90;;;;;;4997168;28;20022;-73
2022/03/06 08:38:37;;;;;;;3.40;3.03;;;8.50;99.90;;;;;;4996717;28;20196;-73
2022/03/06 08:41:03;;;;;;;7.60;2.53;;;8.50;99.90;;;;;;4996922;28;20033;-72
2022/03/06 08:43:29;;;;;;;1.75;1.73;;;8.50;99.90;;;;;;4996730;28;20034;-72
2022/03/06 08:45:54;;;;;;;2.33;2.13;;;8.70;99.90;;;;;;4996656;28;20061;-72
2022/03/06 08:48:21;;;;;;;2.08;1.98;;;8.80;99.90;;;;;;4996685;28;20030;-72
2022/03/06 08:50:49;;;;;;;1.67;1.58;;;8.90;99.90;;;;;;4996438;28;20497;-73
2022/03/06 08:53:15;;;;;;;3.65;3.30;;;9.20;99.90;;;;;;4996439;28;20088;-74
2022/03/06 08:55:41;;;;;;;2.25;2.05;;;9.40;99.90;;;;;;4996608;28;20456;-72
2022/03/06 08:58:06;;;;;;;2.72;2.47;;;9.60;99.90;;;;;;4996917;28;20026;-72
2022/03/06 09:00:32;;;;;;;4.90;2.38;;;10.00;99.90;;;;;;4996729;28;20030;-72
2022/03/06 09:02:58;;;;;;;6.32;2.55;;;10.20;99.90;;;;;;4996448;28;20033;-73
2022/03/06 09:05:23;;;;;;;10.73;4.15;;;10.30;99.90;;;;;;4996262;28;20045;-72
2022/03/06 09:07:49;;;;;;;10.05;2.85;;;10.60;99.90;;;;;;4996464;28;20019;-72
2022/03/06 09:10:15;;;;;;;4.18;1.70;;;10.80;99.90;;;;;;4996205;28;20027;-72
2022/03/06 09:12:40;;;;;;;10.82;2.33;;;11.00;99.90;;;;;;4996442;28;20026;-72
2022/03/06 09:15:08;;;;;;;1.63;1.30;;;11.10;99.90;;;;;;4996183;28;20410;-73
2022/03/06 09:17:34;;;;;;;9.93;3.85;;;11.40;99.90;;;;;;4996016;28;20031;-72
2022/03/06 09:20:00;;;;;;;3.85;1.92;;;11.80;99.90;;;;;;4995960;28;20029;-73
2022/03/06 09:22:25;;;;;;;8.30;2.20;;;12.30;99.90;;;;;;4995677;28;20101;-72
2022/03/06 09:24:51;;;;;;;16.60;4.53;;;12.60;99.90;;;;;;4995917;28;20033;-72
2022/03/06 09:27:16;;;;;;;13.70;3.60;;;12.80;99.90;;;;;;5026855;28;20026;-72
2022/03/06 09:29:42;;;;;;;3.13;2.05;;;12.80;99.90;;;;;;4996142;28;20023;-72
2022/03/06 09:32:08;;;;;;;4.78;1.83;;;12.30;99.90;;;;;;4995201;28;20101;-74
2022/03/06 09:34:33;;;;;;;8.00;2.13;;;12.40;99.90;;;;;;4996107;28;20493;-72
2022/03/06 09:36:59;;;;;;;8.57;2.85;;;12.20;99.90;;;;;;4995930;28;20508;-72
2022/03/06 09:39:25;;;;;;;6.53;3.67;;;12.20;99.90;;;;;;4995773;28;20034;-74
2022/03/06 09:41:54;;;;;;;11.30;2.25;;;12.50;99.90;;;;;;4996226;28;20023;-72
2022/03/06 09:44:25;;;;;;;6.10;2.90;;;13.40;99.90;;;;;;4995513;28;20049;-73
2022/03/06 09:46:56;;;;;;;9.32;3.33;;;15.00;99.90;;;;;;4995926;28;20073;-74
2022/03/06 09:49:23;;;;;;;7.63;3.13;;;16.50;99.90;;;;;;4995630;28;20052;-73
2022/03/06 09:51:49;;;;;;;18.17;3.15;;;17.20;99.90;;;;;;4995666;28;20509;-73
2022/03/06 09:54:16;;;;;;;15.93;3.22;;;16.20;99.90;;;;;;4995514;28;20034;-72
2022/03/06 09:56:43;;;;;;;7.90;5.03;;;15.20;99.90;;;;;;4995275;28;20019;-72
2022/03/06 09:59:09;;;;;;;4.97;1.67;;;14.40;99.90;;;;;;4995593;28;20030;-74
2022/03/06 10:01:35;;;;;;;3.00;1.92;;;13.60;99.90;;;;;;4995361;28;20482;-72
2022/03/06 10:04:20;;;;;;;5.20;2.15;;;13.20;99.90;;;;;;4995305;28;20034;-73
2022/03/06 10:07:05;;;;;;;4.80;2.28;;;12.70;99.90;;;;;;4995448;28;20019;-73
2022/03/06 10:09:32;;;;;;;9.05;2.25;;;12.30;99.90;;;;;;4993999;28;20501;-73
2022/03/06 10:11:58;;;;;;;4.95;2.05;;;12.40;99.90;;;;;;4994509;28;20031;-72
2022/03/06 10:14:41;;;;;;;5.63;2.63;;;12.40;99.90;;;;;;4995279;28;20033;-72
2022/03/06 10:17:13;;;;;;;6.32;2.30;;;12.50;99.90;;;;;;4994882;28;20030;-73
2022/03/06 10:19:48;;;;;;;11.07;2.33;;;12.50;99.90;;;;;;4995590;28;20026;-72
2022/03/06 10:22:14;;;;;;;9.40;2.78;;;12.50;99.90;;;;;;4995522;28;20033;-72
2022/03/06 10:25:06;;;;;;;1.60;1.20;;;12.40;99.90;;;;;;4996035;28;20105;-73
2022/03/06 10:27:57;;;;;;;2.50;1.40;;;12.60;99.90;;;;;;4995552;28;20042;-72
2022/03/06 10:30:39;;;;;;;16.80;3.17;;;12.70;99.90;;;;;;4995017;28;20050;-73
2022/03/06 10:33:11;;;;;;;7.22;1.38;;;12.90;99.90;;;;;;4994364;28;20061;-72
2022/03/06 10:35:42;;;;;;;1.67;1.52;;;12.90;99.90;;;;;;4994973;28;20015;-72
2022/03/06 10:38:31;;;;;;;8.65;2.33;;;13.00;99.90;;;;;;4994735;28;20058;-73
2022/03/06 10:41:12;;;;;;;2.75;1.60;;;12.80;99.90;;;;;;4994910;28;20053;-72
2022/03/06 10:43:38;;;;;;;2.10;1.88;;;13.00;99.90;;;;;;4982632;28;20113;-73
2022/03/06 10:46:11;;;;;;;6.95;2.88;;;13.10;99.90;;;;;;4975566;28;20023;-73
2022/03/06 10:48:39;;;;;;;9.20;2.88;;;13.10;99.90;;;;;;4975247;28;20594;-72
2022/03/06 10:51:10;;;;;;;4.68;2.70;;;13.20;99.90;;;;;;4992756;28;20093;-73
2022/03/06 10:53:36;;;;;;;11.35;2.47;;;13.30;99.90;;;;;;4994404;28;20034;-72
2022/03/06 10:56:15;;;;;;;17.20;4.40;;;13.30;99.90;;;;;;4994894;28;20371;-73
2022/03/06 10:58:43;;;;;;;2.70;1.75;;;13.50;99.90;;;;;;4995762;28;20061;-73
2022/03/06 11:01:10;;;;;;;1.88;1.35;;;13.40;99.90;;;;;;4994374;28;20041;-73
2022/03/06 11:03:36;;;;;;;12.70;2.80;;;13.80;99.90;;;;;;4994208;28;20507;-73
2022/03/06 11:06:07;;;;;;;5.43;3.20;;;13.90;99.90;;;;;;4993654;28;20018;-72
2022/03/06 11:08:34;;;;;;;1.98;1.77;;;14.00;99.90;;;;;;4992857;28;20030;-72
2022/03/06 11:11:03;;;;;;;12.68;2.28;;;13.80;99.90;;;;;;4994430;28;20018;-72
2022/03/06 11:13:29;;;;;;;4.95;1.73;;;13.70;99.90;;;;;;4994205;28;20036;-73
2022/03/06 11:15:57;;;;;;;3.67;2.10;;;13.70;99.90;;;;;;4994045;28;20038;-72
2022/03/06 11:18:24;;;;;;;6.38;2.63;;;13.80;99.90;;;;;;4994238;28;20099;-72
2022/03/06 11:20:52;;;;;;;7.93;2.13;;;13.90;99.90;;;;;;4994132;28;20049;-72
2022/03/06 11:23:41;;;;;;;9.43;3.15;;;14.00;99.90;;;;;;4994100;28;20482;-72
2022/03/06 11:26:36;;;;;;;8.45;2.40;;;14.10;99.90;;;;;;4993877;28;20065;-73
2022/03/06 11:29:05;;;;;;;2.67;1.40;;;14.10;99.90;;;;;;4993211;28;20031;-74
2022/03/06 11:31:51;;;;;;;10.27;3.67;;;13.90;99.90;;;;;;4994166;28;20019;-72
2022/03/06 11:34:27;;;;;;;10.52;3.15;;;13.90;99.90;;;;;;4993934;28;20057;-73
2022/03/06 11:36:54;;;;;;;3.42;1.55;;;13.90;99.90;;;;;;4993884;28;20031;-74
2022/03/06 11:39:29;;;;;;;5.75;3.45;;;13.90;99.90;;;;;;4993552;28;20027;-73
2022/03/06 11:42:05;;;;;;;7.40;1.58;;;13.90;99.90;;;;;;4993281;28;20023;-73
2022/03/06 11:44:35;;;;;;;15.80;4.72;;;13.90;99.90;;;;;;4974337;28;20450;-72
2022/03/06 11:47:18;;;;;;;4.85;1.88;;;14.00;99.90;;;;;;4974247;28;20057;-74
2022/03/06 11:50:05;;;;;;;1.98;1.50;;;14.10;99.90;;;;;;4981752;28;20026;-73
2022/03/06 11:52:33;;;;;;;4.43;1.40;;;13.90;99.90;;;;;;4993237;28;20030;-72
2022/03/06 11:54:59;;;;;;;9.95;2.28;;;13.90;99.90;;;;;;4993232;28;20049;-73
2022/03/06 11:57:47;;;;;;;2.97;1.48;;;13.60;99.90;;;;;;4993992;28;20023;-72
2022/03/06 12:00:13;;;;;;;6.97;1.13;;;13.60;99.90;;;;;;4993275;28;20073;-73
2022/03/06 12:02:46;;;;;;;4.95;1.38;;;13.70;99.90;;;;;;4993406;28;20073;-72
2022/03/06 12:05:12;;;;;;;5.60;3.22;;;13.80;99.80;;;;;;4993466;28;20019;-72
2022/03/06 12:07:40;;;;;;;6.97;2.15;;;14.10;99.90;;;;;;4993681;28;20062;-73
2022/03/06 12:10:10;;;;;;;5.15;3.28;;;14.20;99.90;;;;;;4993359;28;20390;-72
2022/03/06 12:12:37;;;;;;;6.10;1.88;;;14.20;97.90;;;;;;4993460;28;20023;-73
2022/03/06 12:15:23;;;;;;;7.05;2.80;;;14.30;98.00;;;;;;4993408;28;20015;-73
2022/03/06 12:17:49;;;;;;;1.00;0.95;;;14.40;98.80;;;;;;4992517;28;20027;-73
2022/03/06 12:20:23;;;;;;;10.43;2.70;;;14.60;98.30;;;;;;4993631;28;20363;-73
2022/03/06 12:22:51;;;;;;;4.45;1.45;;;14.50;98.50;;;;;;4993514;28;20405;-73
2022/03/06 12:25:21;;;;;;;1.33;1.23;;;14.20;97.20;;;;;;4993147;28;20046;-72
2022/03/06 12:28:10;;;;;;;13.15;2.72;;;13.90;97.50;;;;;;4993234;28;20101;-73
2022/03/06 12:30:38;;;;;;;3.92;1.42;;;14.20;98.50;;;;;;4993005;28;20101;-73
2022/03/06 12:33:31;;;;;;;2.85;2.35;;;14.50;97.90;;;;;;4993196;28;20397;-73
2022/03/06 12:36:16;;;;;;;2.47;0.82;;;14.50;98.60;;;;;;4993303;28;20475;-73
2022/03/06 12:38:43;;;;;;;6.40;3.50;;;14.50;96.90;;;;;;4973566;28;20070;-72
2022/03/06 12:41:10;;;;;;;6.68;1.88;;;14.60;97.40;;;;;;4973625;28;20487;-72
2022/03/06 12:43:45;;;;;;;3.28;1.42;;;14.40;97.40;;;;;;4985407;28;20042;-73
2022/03/06 12:46:12;;;;;;;5.75;2.20;;;14.50;97.10;;;;;;4993570;28;20537;-73
2022/03/06 12:48:38;;;;;;;2.83;1.45;;;14.60;97.10;;;;;;4993207;28;20386;-73
2022/03/06 12:51:04;;;;;;;4.30;2.42;;;14.70;97.00;;;;;;4992226;28;20022;-73
2022/03/06 12:53:29;;;;;;;3.65;2.88;;;14.90;97.80;;;;;;4993017;28;20034;-73
2022/03/06 12:55:59;;;;;;;5.90;2.90;;;14.80;97.30;;;;;;4993321;28;20194;-74